SBOSBO HAM / EDDH
Speedbird OnlineSpeedbird Online HAM / EDDH

Hamburg Airport
00:20 13°C

Location Hamburg, Germany
Latitude: 53.630401611328
Longitude: 9.9882297515869
Local Time 00:20 on 30 May 2024
UTC +2 hours (Europe/Berlin)
Currency £1 equals EUR 1.18
METAR EDDH 292150Z AUTO 22005KT CAVOK 13/12 Q1007 NOSIG
TAF TAF EDDH 291700Z 2918/3024 20005KT 9999 FEW035 PROB30 TEMPO 2918/2920 22010KT 4500 TSRA BKN014CB TEMPO 2923/3005 VRB03KT 2000 BCFG PROB40 TEMPO 3001/3004 0550 FG VV001 PROB30 TEMPO 3005/3007 BKN007 BECMG 3008/3010 VRB03KT PROB30 TEMPO 3012/3018 SHRA BKN020CB BECMG 3021/3023 03005KT
Weather As Of 30 May 2024 00:20
Description Clear sky
Wind 9 km/h from South-West (220°)
Cloud Cover 0%
Precipitation Rain: none, Snow: none
Sunrise 04:58
Sunset 21:36
NOTAM 20 active NOTAM
Rotations During the last 90 days there were
319 flights from LHR
1 flights from HAM
306 flights to LHR
1 flights to HAM
Lounges Hamburg Airport Lounge , Airport Plaza
Web Airport Website | Wikipedia
Codes IATA: HAM
ICAO: EDDH
Altitude 16 Meter / 53 Feet
Distance 707 KM / 439 Miles
from London.
Runways
RunwayLength (m)Surface
053250Asphalt
153666Asphalt
233250Asphalt
333666Asphalt
Radio
TypeDescriptionFrequency
AFISLANGEN INFORMATION125.1
ATISATIS123.125
DIRDIRECTOR118.2
GNDGND121.8
RDRBREMEN RADAR134.25
RMPAPRON121.7
TWRTWR126.85
Live ATC



Support Speedbird Online

© 2017-2024 Speedbird Online